Terminal Aerodrome Forecast
Issued by NWS Lubbock, TX

Home | Current Version | Previous Version | Text Only | Print | Product List | Glossary On
Versions: 1 2 3 4 5 6 7 8 9 10 11 12
000
FTUS44 KLUB 301100
TAFLBB
TAF
KLBB 301123Z 3012/3112 14006KT P6SM BKN110 BKN130 BKN160
     FM301500 20014KT P6SM SCT050 SCT100
     FM302100 35015KT P6SM BKN050 OVC100 PROB30 3021/3103 5SM -TSRA
      OVC040CB
     FM310500 03011KT 6SM BR OVC030=

USA.gov is the U.S. government's official web portal to all federal, state and local government web resources and services.